Time;durP1;ratioP1;P1;durP2;ratioP2;P2;SDS_P1;SDS_P2;PMS_P1;PMS_P2;Temp;Humidity;BMP_temperature;BMP_pressure;BME280_temperature;BME280_humidity;BME280_pressure;Samples;Min_cycle;Max_cycle;Signal;HPM_P1;HPM_P2
2021/10/01 00:02:04;;;;;;;2.57;2.07;;;12.70;73.80;;;;;;5056137;28;20507;-44
2021/10/01 00:04:31;;;;;;;2.73;1.40;;;12.70;74.20;;;;;;5056519;28;20458;-44
2021/10/01 00:06:57;;;;;;;2.93;2.03;;;12.60;74.30;;;;;;5038362;28;20459;-44
2021/10/01 00:09:24;;;;;;;2.40;1.87;;;12.60;74.30;;;;;;5055730;28;20494;-44
2021/10/01 00:11:52;;;;;;;3.00;1.83;;;12.50;74.40;;;;;;5043071;28;21016;-43
2021/10/01 00:14:21;;;;;;;3.67;1.57;;;12.50;74.60;;;;;;5055114;28;20493;-43
2021/10/01 00:16:49;;;;;;;1.80;1.70;;;12.60;74.50;;;;;;5054354;28;20999;-43
2021/10/01 00:19:17;;;;;;;3.27;1.63;;;12.50;74.50;;;;;;5052140;28;20459;-43
2021/10/01 00:21:43;;;;;;;2.00;1.30;;;12.50;74.50;;;;;;5043734;28;20564;-43
2021/10/01 00:24:11;;;;;;;1.77;1.67;;;12.40;74.40;;;;;;5052116;28;20490;-44
2021/10/01 00:26:40;;;;;;;2.30;1.70;;;12.40;74.50;;;;;;5055989;28;20530;-44
2021/10/01 00:29:08;;;;;;;3.03;1.60;;;12.40;74.70;;;;;;5051333;28;20452;-44
2021/10/01 00:31:35;;;;;;;2.70;1.60;;;12.30;74.80;;;;;;5040969;28;20552;-44
2021/10/01 00:34:03;;;;;;;2.60;1.70;;;12.30;74.90;;;;;;5050420;28;20866;-44
2021/10/01 00:36:30;;;;;;;1.80;1.70;;;12.30;75.00;;;;;;5053470;28;20486;-44
2021/10/01 00:38:59;;;;;;;2.87;2.07;;;12.20;75.10;;;;;;5040480;28;20466;-44
2021/10/01 00:41:26;;;;;;;3.77;1.77;;;12.20;75.40;;;;;;5055923;28;20557;-44
2021/10/01 00:43:54;;;;;;;2.30;1.53;;;12.20;75.50;;;;;;5051411;28;20477;-44
2021/10/01 00:46:21;;;;;;;5.43;1.63;;;12.20;75.40;;;;;;5053817;28;20458;-44
2021/10/01 00:48:48;;;;;;;4.00;1.73;;;12.10;75.50;;;;;;5058038;28;20462;-44
2021/10/01 00:51:16;;;;;;;1.83;1.40;;;12.10;75.70;;;;;;5059402;28;20570;-44
2021/10/01 00:53:44;;;;;;;2.07;1.30;;;12.00;75.80;;;;;;5038479;28;20468;-44
2021/10/01 00:56:11;;;;;;;2.27;1.70;;;12.00;75.80;;;;;;5061246;28;20494;-44
2021/10/01 00:58:38;;;;;;;3.97;1.60;;;12.00;75.90;;;;;;5062311;28;20476;-44
2021/10/01 01:01:11;;;;;;;3.40;1.93;;;11.90;75.90;;;;;;5063112;28;20451;-44
2021/10/01 01:04:01;;;;;;;1.43;1.33;;;11.80;76.00;;;;;;5060241;28;21097;-45
2021/10/01 01:07:04;;;;;;;2.43;2.23;;;11.80;76.00;;;;;;5043527;28;20537;-45
2021/10/01 01:09:31;;;;;;;1.37;1.27;;;11.80;76.40;;;;;;5063265;28;20538;-44
2021/10/01 01:12:09;;;;;;;7.30;2.33;;;11.80;76.30;;;;;;5062040;28;20489;-44
2021/10/01 01:14:50;;;;;;;2.00;1.47;;;11.70;76.50;;;;;;5063005;28;20549;-43
2021/10/01 01:17:26;;;;;;;2.40;1.80;;;11.70;76.60;;;;;;5061299;28;20453;-43
2021/10/01 01:20:04;;;;;;;2.60;1.80;;;11.60;76.80;;;;;;5038968;28;20457;-43
2021/10/01 01:22:50;;;;;;;1.60;1.50;;;11.60;77.10;;;;;;5056820;28;20470;-44
2021/10/01 01:25:20;;;;;;;1.60;1.50;;;11.50;77.10;;;;;;5061614;28;20818;-44
2021/10/01 01:28:04;;;;;;;2.30;1.30;;;11.50;77.20;;;;;;5056629;28;20451;-44
2021/10/01 01:30:38;;;;;;;2.23;1.80;;;11.50;77.20;;;;;;5065399;28;20461;-44
2021/10/01 01:33:07;;;;;;;2.97;1.93;;;11.50;77.40;;;;;;5060555;28;20569;-44
2021/10/01 01:35:38;;;;;;;2.93;1.77;;;11.50;77.40;;;;;;5060782;28;20836;-44
2021/10/01 01:38:10;;;;;;;6.23;2.90;;;11.40;77.50;;;;;;5058778;28;20452;-44
2021/10/01 01:40:45;;;;;;;17.70;9.20;;;11.50;77.40;;;;;;5057343;28;20488;-44
2021/10/01 01:43:13;;;;;;;11.90;6.70;;;11.40;77.40;;;;;;5062569;28;20485;-44
2021/10/01 01:45:41;;;;;;;7.80;4.30;;;11.40;77.50;;;;;;5059772;28;20526;-44
2021/10/01 01:48:09;;;;;;;6.47;3.53;;;11.40;77.80;;;;;;5060842;28;20462;-44
2021/10/01 01:50:38;;;;;;;3.17;2.87;;;11.40;77.70;;;;;;5045663;28;20522;-44
2021/10/01 01:53:06;;;;;;;2.13;1.60;;;11.30;77.70;;;;;;5057418;28;20494;-44
2021/10/01 01:55:33;;;;;;;4.20;1.40;;;11.30;77.60;;;;;;5027460;28;20458;-44
2021/10/01 01:58:01;;;;;;;4.90;1.63;;;11.30;77.60;;;;;;5045637;28;20510;-44
2021/10/01 02:00:29;;;;;;;2.30;1.90;;;11.20;77.50;;;;;;5056760;28;20554;-44
2021/10/01 02:02:57;;;;;;;2.93;2.10;;;11.20;77.60;;;;;;5040569;28;20462;-44
2021/10/01 02:05:25;;;;;;;5.17;2.77;;;11.20;77.60;;;;;;5040794;28;20521;-44
2021/10/01 02:07:56;;;;;;;3.13;2.63;;;11.10;77.60;;;;;;5041002;28;20458;-44
2021/10/01 02:10:23;;;;;;;4.50;3.47;;;11.10;77.50;;;;;;5058334;28;20667;-44
2021/10/01 02:12:57;;;;;;;3.93;2.67;;;11.10;77.60;;;;;;5055280;28;20482;-43
2021/10/01 02:15:28;;;;;;;3.90;3.03;;;11.00;77.50;;;;;;5056915;28;20452;-44
2021/10/01 02:17:58;;;;;;;4.30;2.83;;;11.00;77.60;;;;;;5044051;28;20526;-44
2021/10/01 02:20:27;;;;;;;3.23;2.93;;;11.00;77.50;;;;;;5056655;28;20467;-44
2021/10/01 02:22:54;;;;;;;2.93;1.97;;;11.00;77.50;;;;;;5053611;28;20463;-44
2021/10/01 02:28:10;;;;;;;3.10;1.70;;;10.90;77.40;;;;;;5057583;28;20582;-44
2021/10/01 02:30:39;;;;;;;4.57;2.30;;;10.80;77.60;;;;;;5055131;28;20527;-44
2021/10/01 02:33:13;;;;;;;2.40;2.10;;;10.80;77.70;;;;;;5056429;28;20496;-44
2021/10/01 02:35:40;;;;;;;2.03;1.93;;;10.70;77.90;;;;;;5057867;28;20848;-44
2021/10/01 02:38:07;;;;;;;5.00;2.73;;;10.60;78.10;;;;;;5059300;28;20557;-44
2021/10/01 02:40:34;;;;;;;2.17;1.90;;;10.60;78.30;;;;;;5056285;28;20451;-44
2021/10/01 02:43:00;;;;;;;2.03;1.50;;;10.60;78.50;;;;;;5031595;28;20557;-43
2021/10/01 02:45:27;;;;;;;4.50;1.80;;;10.60;78.40;;;;;;5043601;28;20468;-43
2021/10/01 02:47:54;;;;;;;2.57;1.60;;;10.60;78.50;;;;;;5042575;28;20465;-42
2021/10/01 02:50:22;;;;;;;6.13;2.37;;;10.60;78.70;;;;;;5042450;28;20835;-43
2021/10/01 02:53:10;;;;;;;2.80;1.77;;;10.60;78.70;;;;;;5041713;28;20513;-43
2021/10/01 02:55:41;;;;;;;2.97;1.83;;;10.50;78.80;;;;;;5038004;28;20471;-43
2021/10/01 02:58:19;;;;;;;1.83;1.73;;;10.60;78.80;;;;;;5043636;28;21358;-43
2021/10/01 03:00:46;;;;;;;2.10;1.63;;;10.50;78.90;;;;;;5038045;28;21746;-43
2021/10/01 03:03:45;;;;;;;2.50;1.60;;;10.50;79.00;;;;;;5041354;28;20834;-43
2021/10/01 03:06:13;;;;;;;2.47;2.30;;;10.50;79.10;;;;;;5029566;28;20455;-43
2021/10/01 03:08:41;;;;;;;3.70;2.33;;;10.40;79.30;;;;;;5040670;28;20971;-43
2021/10/01 03:11:11;;;;;;;4.40;1.80;;;10.40;79.30;;;;;;5037675;28;20463;-43
2021/10/01 03:13:45;;;;;;;1.70;1.60;;;10.50;79.20;;;;;;5042707;28;20482;-43
2021/10/01 03:16:13;;;;;;;3.30;2.33;;;10.50;79.10;;;;;;5043917;28;20460;-43
2021/10/01 03:18:40;;;;;;;3.03;1.87;;;10.50;79.00;;;;;;5038640;28;20468;-43
2021/10/01 03:21:07;;;;;;;2.60;2.20;;;10.50;79.00;;;;;;5042504;28;20456;-43
2021/10/01 03:23:35;;;;;;;3.07;2.40;;;10.50;79.00;;;;;;5021848;28;20467;-43
2021/10/01 03:26:02;;;;;;;4.40;2.40;;;10.40;79.30;;;;;;5040035;28;20455;-43
2021/10/01 03:28:29;;;;;;;2.10;2.00;;;10.40;79.40;;;;;;5025873;28;20470;-43
2021/10/01 03:30:56;;;;;;;2.40;2.20;;;10.40;79.50;;;;;;5036703;28;20463;-43
2021/10/01 03:33:28;;;;;;;4.40;2.77;;;10.30;79.50;;;;;;5026556;28;20503;-43
2021/10/01 03:35:55;;;;;;;1.93;1.73;;;10.30;79.60;;;;;;5043090;28;20560;-43
2021/10/01 03:38:25;;;;;;;1.80;1.60;;;10.30;79.50;;;;;;5042038;28;20455;-43
2021/10/01 03:40:53;;;;;;;1.80;1.67;;;10.30;79.30;;;;;;5040840;28;20530;-44
2021/10/01 03:43:24;;;;;;;2.63;1.73;;;10.20;79.10;;;;;;5041329;28;20480;-43
2021/10/01 03:45:51;;;;;;;1.80;1.67;;;10.20;79.20;;;;;;5039925;28;20458;-43
2021/10/01 03:48:18;;;;;;;2.80;1.70;;;10.20;79.30;;;;;;5026773;28;20537;-43
2021/10/01 03:50:45;;;;;;;3.43;1.70;;;10.20;79.10;;;;;;5044145;28;20462;-43
2021/10/01 03:53:12;;;;;;;3.43;1.93;;;10.20;78.70;;;;;;5039498;28;20573;-43
2021/10/01 03:55:39;;;;;;;2.17;1.90;;;10.10;78.50;;;;;;5039357;28;20964;-43
2021/10/01 03:58:06;;;;;;;2.90;1.83;;;10.00;78.70;;;;;;5040656;28;20840;-43
2021/10/01 04:00:33;;;;;;;2.30;2.10;;;10.00;78.90;;;;;;5041375;28;20826;-43
2021/10/01 04:02:59;;;;;;;5.63;1.80;;;10.00;78.90;;;;;;5041160;28;20577;-43
2021/10/01 04:05:26;;;;;;;12.00;2.40;;;10.00;78.80;;;;;;5041688;28;20454;-43
2021/10/01 04:07:53;;;;;;;3.57;2.13;;;9.90;78.40;;;;;;5041474;28;20468;-43
2021/10/01 04:10:20;;;;;;;3.77;2.70;;;9.90;78.70;;;;;;5044657;28;20493;-44
2021/10/01 04:12:46;;;;;;;2.90;2.03;;;9.90;78.90;;;;;;5040206;28;20487;-43
2021/10/01 04:15:13;;;;;;;2.70;2.40;;;9.80;79.00;;;;;;5037652;28;20877;-43
2021/10/01 04:17:40;;;;;;;2.57;2.13;;;9.80;79.30;;;;;;5038103;28;20464;-43
2021/10/01 04:20:07;;;;;;;3.03;2.30;;;9.80;79.40;;;;;;5039127;28;20463;-43
2021/10/01 04:22:34;;;;;;;2.50;2.20;;;9.80;79.40;;;;;;5038420;28;20462;-43
2021/10/01 04:25:00;;;;;;;3.80;3.37;;;9.80;79.50;;;;;;5036743;28;20545;-43
2021/10/01 04:27:27;;;;;;;4.67;2.60;;;9.70;79.70;;;;;;5040465;28;20495;-43
2021/10/01 04:29:54;;;;;;;2.60;2.40;;;9.70;80.00;;;;;;5039477;28;20456;-43
2021/10/01 04:32:21;;;;;;;6.83;2.30;;;9.70;80.10;;;;;;5038568;28;20490;-42
2021/10/01 04:34:59;;;;;;;4.43;2.50;;;9.70;80.30;;;;;;5037053;28;20490;-42
2021/10/01 04:37:27;;;;;;;2.90;2.20;;;9.70;80.40;;;;;;5039504;28;20458;-44
2021/10/01 04:39:57;;;;;;;3.53;2.33;;;9.70;80.50;;;;;;5027977;28;20463;-43
2021/10/01 04:42:25;;;;;;;4.17;2.30;;;9.70;80.70;;;;;;5038620;28;20554;-43
2021/10/01 04:44:52;;;;;;;5.40;2.37;;;9.70;80.80;;;;;;5038927;28;20457;-43
2021/10/01 04:47:19;;;;;;;4.73;2.67;;;9.70;80.90;;;;;;5025327;28;20463;-43
2021/10/01 04:49:46;;;;;;;5.20;2.00;;;9.80;81.30;;;;;;5041982;28;20772;-43
2021/10/01 04:52:12;;;;;;;3.30;1.80;;;9.80;81.10;;;;;;5044655;28;20483;-43
2021/10/01 04:54:39;;;;;;;3.97;2.40;;;9.80;81.00;;;;;;5039890;28;20700;-43
2021/10/01 04:57:08;;;;;;;22.00;12.20;;;9.80;81.00;;;;;;5042367;28;20466;-43
2021/10/01 04:59:34;;;;;;;27.30;14.03;;;9.80;81.00;;;;;;5040751;28;20509;-43
2021/10/01 05:02:01;;;;;;;28.10;12.97;;;9.80;80.90;;;;;;5027658;28;20964;-43
2021/10/01 05:04:28;;;;;;;20.23;10.53;;;9.80;80.90;;;;;;5040167;28;20464;-43
2021/10/01 05:06:55;;;;;;;15.23;8.13;;;9.80;80.90;;;;;;5041442;28;20493;-43
2021/10/01 05:09:22;;;;;;;7.40;4.80;;;9.80;81.00;;;;;;5039316;28;20455;-43
2021/10/01 05:11:49;;;;;;;11.20;5.70;;;9.80;81.20;;;;;;5025306;28;20466;-43
2021/10/01 05:14:15;;;;;;;6.53;4.17;;;9.80;81.20;;;;;;5040169;28;20904;-43
2021/10/01 05:16:44;;;;;;;5.27;4.00;;;9.80;81.30;;;;;;5039394;28;20465;-43
2021/10/01 05:19:13;;;;;;;3.87;3.30;;;9.80;81.40;;;;;;5037784;28;20462;-43
2021/10/01 05:21:40;;;;;;;3.90;3.33;;;9.80;81.50;;;;;;5035915;28;20840;-43
2021/10/01 05:24:07;;;;;;;6.83;3.77;;;9.80;81.60;;;;;;5039076;28;20537;-43
2021/10/01 05:26:33;;;;;;;5.77;4.33;;;9.80;81.70;;;;;;5040371;28;20521;-43
2021/10/01 05:29:00;;;;;;;5.00;3.27;;;9.80;81.70;;;;;;5040356;28;20462;-44
2021/10/01 05:31:28;;;;;;;5.97;3.03;;;9.80;81.80;;;;;;5041735;28;20855;-43
2021/10/01 05:33:55;;;;;;;4.70;3.40;;;9.80;81.80;;;;;;5038831;28;20610;-43
2021/10/01 05:36:22;;;;;;;2.97;2.57;;;9.90;81.80;;;;;;5042445;28;20981;-43
2021/10/01 05:38:49;;;;;;;5.00;3.27;;;9.90;81.80;;;;;;5044424;28;20484;-43
2021/10/01 05:41:16;;;;;;;5.40;3.63;;;9.90;81.70;;;;;;5046401;28;20462;-43
2021/10/01 05:43:43;;;;;;;8.03;3.57;;;9.90;81.60;;;;;;5042311;28;20474;-43
2021/10/01 05:46:10;;;;;;;3.90;2.97;;;9.90;81.60;;;;;;5046707;28;20860;-43
2021/10/01 05:48:40;;;;;;;6.03;3.23;;;9.90;81.60;;;;;;5024376;28;20520;-43
2021/10/01 05:51:09;;;;;;;5.33;2.60;;;9.90;81.60;;;;;;5001353;28;21300;-43
2021/10/01 05:56:10;;;;;;;3.70;3.40;;;9.80;81.70;;;;;;5041327;28;20910;-44
2021/10/01 05:58:41;;;;;;;2.53;2.00;;;9.80;81.70;;;;;;5040459;28;20490;-44
2021/10/01 06:01:08;;;;;;;3.47;2.43;;;9.80;81.80;;;;;;5042577;28;20460;-44
2021/10/01 06:03:35;;;;;;;5.90;2.90;;;9.80;81.80;;;;;;5020511;28;20696;-44
2021/10/01 06:06:03;;;;;;;7.63;2.80;;;9.90;81.70;;;;;;5042515;28;20478;-44
2021/10/01 06:08:30;;;;;;;3.97;2.53;;;9.90;81.80;;;;;;5045323;28;20821;-44
2021/10/01 06:10:56;;;;;;;4.23;2.90;;;9.90;81.80;;;;;;5043124;28;20519;-44
2021/10/01 06:13:23;;;;;;;4.17;2.80;;;9.90;81.90;;;;;;5039544;28;20490;-44
2021/10/01 06:15:50;;;;;;;3.37;3.07;;;9.90;81.90;;;;;;5043079;28;20485;-44
2021/10/01 06:18:16;;;;;;;3.17;2.77;;;9.90;82.00;;;;;;5043266;28;20971;-44
2021/10/01 06:20:43;;;;;;;8.17;2.83;;;9.90;82.10;;;;;;5039421;28;20455;-44
2021/10/01 06:23:10;;;;;;;3.83;3.33;;;9.90;82.20;;;;;;5040426;28;20529;-44
2021/10/01 06:25:37;;;;;;;8.07;3.77;;;10.00;82.20;;;;;;5045814;28;20871;-44
2021/10/01 06:28:04;;;;;;;5.43;3.43;;;10.00;82.20;;;;;;5030068;28;20477;-44
2021/10/01 06:30:31;;;;;;;5.87;3.83;;;10.00;82.30;;;;;;5042166;28;20459;-44
2021/10/01 06:32:58;;;;;;;4.47;3.60;;;10.00;82.30;;;;;;5042685;28;20816;-44
2021/10/01 06:35:26;;;;;;;5.90;3.93;;;10.00;82.40;;;;;;5042454;28;20498;-44
2021/10/01 06:37:52;;;;;;;6.90;3.80;;;10.00;82.40;;;;;;5038726;28;20451;-44
2021/10/01 06:40:19;;;;;;;6.80;4.37;;;10.00;82.50;;;;;;5045806;28;20835;-44
2021/10/01 06:42:51;;;;;;;7.33;3.20;;;10.10;82.60;;;;;;5044184;28;20918;-44
2021/10/01 06:45:28;;;;;;;6.27;3.50;;;10.10;82.60;;;;;;5046024;28;20455;-44
2021/10/01 08:20:52;;;;;;;3.20;2.97;;;12.60;74.30;;;;;;5041644;28;20458;-43
2021/10/01 08:23:19;;;;;;;7.27;3.47;;;12.70;74.10;;;;;;5042028;28;20466;-44
2021/10/01 08:25:46;;;;;;;4.00;3.40;;;12.90;73.90;;;;;;5041664;28;21072;-43
2021/10/01 08:28:13;;;;;;;4.10;3.33;;;13.00;73.70;;;;;;5043274;28;20984;-43
2021/10/01 08:30:40;;;;;;;5.47;3.77;;;13.20;73.50;;;;;;5039816;28;20463;-43
2021/10/01 08:33:07;;;;;;;7.53;3.50;;;13.30;72.20;;;;;;5039706;28;20490;-43
2021/10/01 08:35:33;;;;;;;8.57;3.70;;;13.40;71.70;;;;;;5041271;28;20959;-43
2021/10/01 08:38:00;;;;;;;5.20;3.50;;;13.50;71.80;;;;;;5040129;28;20983;-43
2021/10/01 08:40:27;;;;;;;3.73;3.33;;;13.60;71.60;;;;;;5040572;28;20970;-43
2021/10/01 08:42:55;;;;;;;3.80;3.00;;;13.70;70.60;;;;;;5042806;28;20450;-43
2021/10/01 08:45:24;;;;;;;5.53;2.63;;;13.70;70.70;;;;;;5040463;28;20448;-43
2021/10/01 08:47:52;;;;;;;3.33;2.73;;;13.70;70.80;;;;;;5027276;28;20474;-43
2021/10/01 08:50:21;;;;;;;2.83;2.53;;;13.70;70.80;;;;;;5045307;28;20932;-43
2021/10/01 08:52:49;;;;;;;6.20;3.67;;;13.70;71.20;;;;;;5029489;28;20446;-43
2021/10/01 08:55:17;;;;;;;4.63;3.30;;;13.70;70.90;;;;;;5042811;28;20982;-43
2021/10/01 08:57:44;;;;;;;4.57;3.20;;;13.70;70.70;;;;;;5040834;28;20459;-43
2021/10/01 09:00:15;;;;;;;5.50;2.60;;;13.60;71.10;;;;;;5040955;28;20518;-43
2021/10/01 09:02:42;;;;;;;4.40;3.20;;;13.60;71.60;;;;;;5025859;28;20529;-43
2021/10/01 09:05:09;;;;;;;4.77;3.40;;;13.60;72.00;;;;;;5042692;28;20449;-43
2021/10/01 09:07:36;;;;;;;3.17;2.97;;;13.60;72.10;;;;;;5041340;28;20463;-43
2021/10/01 09:10:11;;;;;;;3.80;3.13;;;13.70;72.10;;;;;;5040352;28;20494;-44
2021/10/01 09:12:38;;;;;;;4.07;3.57;;;13.70;72.30;;;;;;5037314;28;21003;-44
2021/10/01 09:15:08;;;;;;;7.00;2.90;;;13.70;71.90;;;;;;5042389;28;20556;-44
2021/10/01 09:17:39;;;;;;;5.37;3.53;;;13.80;71.70;;;;;;5034602;28;20445;-44
2021/10/01 09:20:07;;;;;;;14.43;4.97;;;13.80;71.90;;;;;;5044027;28;20956;-44
2021/10/01 09:22:37;;;;;;;3.77;3.00;;;13.90;71.70;;;;;;5043628;28;20448;-44
2021/10/01 09:25:21;;;;;;;4.53;3.40;;;13.90;71.60;;;;;;5046767;28;20462;-44
2021/10/01 09:27:58;;;;;;;6.17;3.70;;;13.90;71.20;;;;;;5041537;28;20438;-44
2021/10/01 09:30:26;;;;;;;4.13;3.53;;;13.90;71.10;;;;;;5028198;28;20457;-44
2021/10/01 09:33:03;;;;;;;7.60;3.33;;;14.00;70.70;;;;;;5042758;28;21047;-44
2021/10/01 09:35:30;;;;;;;3.20;2.83;;;14.10;70.30;;;;;;5044404;28;20457;-44
2021/10/01 09:38:12;;;;;;;4.70;3.33;;;14.20;70.00;;;;;;5035119;28;20455;-44
2021/10/01 09:40:41;;;;;;;4.87;3.30;;;14.30;69.60;;;;;;5035320;28;20450;-44
2021/10/01 09:43:25;;;;;;;4.80;4.07;;;14.30;69.50;;;;;;5045633;28;20455;-44
2021/10/01 09:46:04;;;;;;;6.40;3.63;;;14.30;69.20;;;;;;5043440;28;21010;-44
2021/10/01 09:48:36;;;;;;;3.50;3.20;;;14.50;69.50;;;;;;5032068;28;20882;-44
2021/10/01 09:51:17;;;;;;;4.70;3.27;;;14.60;69.30;;;;;;5034108;28;20968;-44
2021/10/01 09:53:46;;;;;;;6.23;3.30;;;14.70;68.10;;;;;;5034472;28;20483;-44
2021/10/01 09:56:22;;;;;;;3.47;3.00;;;14.90;67.30;;;;;;5044139;28;20447;-44
2021/10/01 09:59:07;;;;;;;3.60;3.10;;;15.00;66.40;;;;;;5041893;28;20537;-44
2021/10/01 10:01:35;;;;;;;5.40;3.00;;;15.10;66.20;;;;;;5041192;28;20466;-44
2021/10/01 10:04:15;;;;;;;3.57;3.27;;;15.40;66.60;;;;;;5041510;28;20511;-44
2021/10/01 10:06:45;;;;;;;3.70;3.37;;;15.60;64.60;;;;;;5045566;28;20456;-44
2021/10/01 10:09:13;;;;;;;4.40;3.00;;;15.80;63.60;;;;;;5045612;28;20446;-44
2021/10/01 10:11:42;;;;;;;3.40;2.80;;;16.00;62.70;;;;;;5043577;28;20459;-44
2021/10/01 10:14:11;;;;;;;4.20;2.57;;;16.30;62.40;;;;;;5041195;28;20482;-44
2021/10/01 10:16:39;;;;;;;5.43;2.80;;;16.70;62.00;;;;;;5045694;28;20478;-44
2021/10/01 10:19:10;;;;;;;3.10;2.40;;;17.20;60.50;;;;;;5045506;28;20459;-44
2021/10/01 10:21:37;;;;;;;4.93;3.43;;;17.50;59.60;;;;;;5026350;28;20471;-44
2021/10/01 10:24:05;;;;;;;3.67;3.07;;;17.70;58.30;;;;;;5044730;28;20465;-44
2021/10/01 10:26:32;;;;;;;5.97;2.87;;;17.90;58.30;;;;;;5043049;28;20471;-44
2021/10/01 10:29:02;;;;;;;3.20;2.73;;;18.10;57.60;;;;;;5024400;28;20450;-44
2021/10/01 10:31:32;;;;;;;2.37;2.13;;;18.30;56.60;;;;;;5044610;28;20450;-44
2021/10/01 10:33:59;;;;;;;3.00;2.80;;;18.50;56.30;;;;;;5043617;28;20850;-44
2021/10/01 10:36:45;;;;;;;6.60;2.20;;;18.60;56.50;;;;;;5041225;28;20461;-44
2021/10/01 10:39:11;;;;;;;2.97;2.67;;;18.60;56.60;;;;;;5044532;28;20451;-44
2021/10/01 10:41:39;;;;;;;5.03;3.03;;;18.50;56.80;;;;;;5044461;28;20455;-44
2021/10/01 10:44:08;;;;;;;4.53;2.93;;;18.50;56.70;;;;;;5026052;28;20456;-44
2021/10/01 10:46:34;;;;;;;4.00;2.80;;;18.60;57.20;;;;;;5042947;28;20870;-44
2021/10/01 10:49:20;;;;;;;3.43;3.13;;;18.40;57.30;;;;;;5043666;28;20455;-44
2021/10/01 10:52:18;;;;;;;4.20;2.40;;;18.40;57.40;;;;;;5041605;28;20447;-44
2021/10/01 10:54:50;;;;;;;3.17;2.60;;;18.50;57.30;;;;;;5042366;28;20479;-44
2021/10/01 10:57:17;;;;;;;6.97;2.97;;;18.50;57.00;;;;;;5046392;28;20438;-44
2021/10/01 10:59:49;;;;;;;6.97;4.30;;;18.30;57.10;;;;;;5042697;28;20943;-44
2021/10/01 11:02:24;;;;;;;6.00;3.20;;;18.20;57.30;;;;;;5044132;28;20478;-44
2021/10/01 11:05:12;;;;;;;4.40;2.50;;;18.10;57.60;;;;;;5040658;28;20446;-44
2021/10/01 11:07:49;;;;;;;4.73;4.27;;;18.00;57.70;;;;;;5035310;28;20906;-44
2021/10/01 11:10:47;;;;;;;5.77;3.60;;;17.90;58.40;;;;;;5042886;28;20452;-44
2021/10/01 11:13:23;;;;;;;7.37;5.77;;;17.80;58.10;;;;;;5042646;28;20505;-44
2021/10/01 11:16:08;;;;;;;10.37;4.60;;;17.70;57.90;;;;;;5042057;28;20481;-44
2021/10/01 11:18:42;;;;;;;6.33;2.70;;;17.60;58.10;;;;;;5030051;28;20886;-44
2021/10/01 11:21:25;;;;;;;5.53;3.17;;;17.60;58.60;;;;;;5042358;28;20455;-44
2021/10/01 11:24:08;;;;;;;4.70;2.33;;;17.50;59.00;;;;;;5040228;28;20450;-44
2021/10/01 11:26:40;;;;;;;4.00;1.93;;;17.40;59.70;;;;;;5030578;28;20977;-44
2021/10/01 11:29:26;;;;;;;2.10;1.93;;;17.30;58.90;;;;;;5042035;28;20446;-44
2021/10/01 11:32:00;;;;;;;4.00;1.73;;;17.30;58.70;;;;;;5038148;28;20498;-44
2021/10/01 11:34:39;;;;;;;2.70;1.70;;;17.20;58.90;;;;;;5037905;28;20984;-44
2021/10/01 11:37:32;;;;;;;4.33;1.57;;;17.10;59.00;;;;;;5041640;28;20443;-44
2021/10/01 11:40:09;;;;;;;2.63;1.70;;;17.10;59.00;;;;;;5044134;28;20444;-44
2021/10/01 11:42:39;;;;;;;3.23;1.63;;;17.10;59.50;;;;;;5032750;28;20468;-44
2021/10/01 11:45:08;;;;;;;2.27;1.93;;;17.10;58.80;;;;;;5047501;28;20675;-44
2021/10/01 11:47:36;;;;;;;5.33;2.13;;;17.10;57.60;;;;;;5042635;28;20464;-44
2021/10/01 11:50:04;;;;;;;4.30;2.00;;;17.10;57.40;;;;;;5042350;28;20447;-44
2021/10/01 11:52:42;;;;;;;3.57;2.17;;;17.10;57.80;;;;;;5041677;28;20454;-44
2021/10/01 11:55:09;;;;;;;2.50;2.17;;;17.10;58.00;;;;;;5042905;28;20483;-44
2021/10/01 11:57:38;;;;;;;2.90;2.00;;;17.10;58.40;;;;;;5040317;28;20458;-44
2021/10/01 12:00:08;;;;;;;4.10;2.40;;;17.10;57.80;;;;;;5029569;28;20465;-44
2021/10/01 12:02:42;;;;;;;6.70;2.10;;;17.10;57.10;;;;;;5041810;28;20450;-44
2021/10/01 12:05:23;;;;;;;3.63;1.57;;;17.10;57.10;;;;;;5041117;28;20530;-44
2021/10/01 12:07:55;;;;;;;2.77;1.47;;;17.10;57.40;;;;;;5039023;28;20459;-44
2021/10/01 12:10:24;;;;;;;1.37;1.07;;;17.20;55.80;;;;;;5039898;28;20821;-44
2021/10/01 12:12:59;;;;;;;1.70;1.47;;;17.20;53.70;;;;;;5040713;28;20462;-44
2021/10/01 12:15:41;;;;;;;5.33;1.43;;;17.30;53.10;;;;;;5040206;28;20481;-44
2021/10/01 12:18:31;;;;;;;1.60;1.47;;;17.40;53.00;;;;;;5040983;28;20545;-44
2021/10/01 12:21:12;;;;;;;2.33;1.10;;;17.50;53.30;;;;;;5043025;28;20450;-44
2021/10/01 12:23:44;;;;;;;2.43;1.37;;;17.50;53.50;;;;;;5041346;28;20537;-44
2021/10/01 12:26:23;;;;;;;3.13;1.67;;;17.50;53.60;;;;;;5027499;28;20459;-44
2021/10/01 12:28:59;;;;;;;4.70;2.90;;;17.60;53.10;;;;;;5011529;28;20461;-44
2021/10/01 12:31:31;;;;;;;3.43;1.63;;;17.70;54.10;;;;;;5042297;28;20450;-44
2021/10/01 12:34:00;;;;;;;1.10;0.93;;;17.70;54.90;;;;;;5042123;28;20511;-44
2021/10/01 12:36:28;;;;;;;1.50;1.00;;;17.80;52.60;;;;;;5041224;28;20458;-44
2021/10/01 12:38:56;;;;;;;1.80;0.90;;;17.80;53.40;;;;;;5040436;28;20853;-44
2021/10/01 12:41:24;;;;;;;2.03;1.27;;;17.80;53.40;;;;;;5041374;28;20483;-44
2021/10/01 12:43:54;;;;;;;2.60;1.83;;;17.80;52.50;;;;;;5042892;28;20450;-44
2021/10/01 12:46:33;;;;;;;1.87;1.13;;;17.80;52.40;;;;;;5042100;28;20469;-44
2021/10/01 12:49:20;;;;;;;3.87;1.50;;;17.90;53.20;;;;;;5038259;28;20459;-44
2021/10/01 12:52:27;;;;;;;5.30;1.30;;;17.90;53.10;;;;;;5042026;28;20465;-44
2021/10/01 12:55:15;;;;;;;3.13;1.10;;;17.90;53.40;;;;;;5035619;28;21018;-44
2021/10/01 12:57:45;;;;;;;1.90;1.17;;;17.90;53.30;;;;;;5044518;28;20462;-44
2021/10/01 13:00:20;;;;;;;1.57;0.90;;;18.00;53.70;;;;;;5040761;28;20605;-44
2021/10/01 13:02:57;;;;;;;2.00;1.03;;;18.00;53.10;;;;;;5040277;28;21015;-44
2021/10/01 13:05:29;;;;;;;3.80;1.30;;;18.00;53.40;;;;;;5042483;28;20447;-44
2021/10/01 13:07:56;;;;;;;3.03;1.80;;;18.00;53.60;;;;;;5043475;28;20494;-44
2021/10/01 13:10:48;;;;;;;3.30;1.20;;;18.10;53.40;;;;;;5044096;28;20829;-44
2021/10/01 13:13:23;;;;;;;1.30;1.10;;;18.10;53.40;;;;;;5041071;28;20513;-44
2021/10/01 13:15:57;;;;;;;1.53;1.33;;;18.10;52.90;;;;;;5027151;28;20530;-44
2021/10/01 13:18:38;;;;;;;2.17;1.10;;;18.10;52.50;;;;;;5045133;28;20443;-44
2021/10/01 13:21:19;;;;;;;2.40;1.00;;;18.20;53.70;;;;;;5041066;28;20463;-44
2021/10/01 13:23:53;;;;;;;1.70;0.97;;;18.10;53.80;;;;;;5039540;28;20984;-44
2021/10/01 13:26:23;;;;;;;5.37;2.23;;;18.20;53.70;;;;;;5041326;28;20458;-44
2021/10/01 13:28:59;;;;;;;4.50;1.57;;;18.10;52.70;;;;;;5041585;28;20458;-44
2021/10/01 13:31:27;;;;;;;4.70;1.23;;;18.10;52.80;;;;;;5039452;28;20621;-44
2021/10/01 13:33:55;;;;;;;1.53;1.43;;;18.10;53.30;;;;;;5042261;28;20451;-44
2021/10/01 13:36:23;;;;;;;8.23;1.20;;;18.20;53.20;;;;;;5042404;28;20457;-44
2021/10/01 13:38:50;;;;;;;1.90;1.03;;;18.20;53.30;;;;;;5041182;28;20463;-44
2021/10/01 13:41:20;;;;;;;1.57;1.43;;;18.20;53.80;;;;;;5038860;28;20451;-44
2021/10/01 13:43:48;;;;;;;2.73;1.40;;;18.30;53.70;;;;;;5039955;28;20459;-44
2021/10/01 13:46:16;;;;;;;3.70;1.83;;;18.30;52.90;;;;;;5037043;28;20982;-44
2021/10/01 13:48:43;;;;;;;1.20;1.10;;;18.30;53.00;;;;;;5039082;28;20545;-44
2021/10/01 13:51:11;;;;;;;1.13;0.93;;;18.30;53.10;;;;;;5040901;28;20900;-44
2021/10/01 13:53:38;;;;;;;2.03;1.20;;;18.30;53.40;;;;;;5038650;28;20451;-44
2021/10/01 13:56:05;;;;;;;1.10;0.80;;;18.40;53.10;;;;;;5030479;28;20492;-44
2021/10/01 13:58:32;;;;;;;6.27;1.50;;;18.40;52.80;;;;;;5046688;28;20457;-44
2021/10/01 14:00:58;;;;;;;1.63;1.20;;;18.40;52.50;;;;;;5030928;28;20448;-44
2021/10/01 14:03:26;;;;;;;2.50;1.00;;;18.40;52.80;;;;;;5043742;28;20526;-44
2021/10/01 14:05:53;;;;;;;2.40;1.27;;;18.50;52.50;;;;;;5041596;28;20502;-44
2021/10/01 14:08:20;;;;;;;2.60;1.03;;;18.50;52.20;;;;;;5042664;28;20451;-44
2021/10/01 14:10:47;;;;;;;1.10;0.93;;;18.50;52.20;;;;;;5028273;28;20944;-44
2021/10/01 14:13:14;;;;;;;3.70;1.43;;;18.60;53.70;;;;;;5043497;28;20474;-44
2021/10/01 14:15:43;;;;;;;7.90;1.50;;;18.60;53.00;;;;;;5044080;28;20494;-42
2021/10/01 14:18:13;;;;;;;1.97;1.10;;;18.60;52.60;;;;;;5043153;28;20477;-44
2021/10/01 14:20:42;;;;;;;1.03;0.93;;;18.60;52.60;;;;;;5042026;28;20471;-42
2021/10/01 14:23:09;;;;;;;9.03;1.50;;;18.60;52.90;;;;;;5027353;28;20867;-42
2021/10/01 14:25:37;;;;;;;2.93;1.27;;;18.70;52.70;;;;;;5043212;28;20474;-42
2021/10/01 14:28:06;;;;;;;2.23;1.40;;;18.70;52.60;;;;;;5043318;28;20459;-42
2021/10/01 14:30:35;;;;;;;2.40;0.90;;;18.70;52.60;;;;;;5046255;28;20469;-42
2021/10/01 14:33:03;;;;;;;2.90;1.27;;;18.80;54.10;;;;;;5042381;28;20470;-42
2021/10/01 14:35:39;;;;;;;3.47;1.50;;;18.90;55.00;;;;;;5043728;28;20920;-42
2021/10/01 14:38:08;;;;;;;4.57;1.60;;;18.90;52.20;;;;;;5044967;28;20445;-42
2021/10/01 14:40:38;;;;;;;1.87;1.77;;;18.90;52.30;;;;;;5045105;28;20520;-43
2021/10/01 14:43:26;;;;;;;1.47;1.33;;;19.00;52.90;;;;;;5046877;28;20966;-42
2021/10/01 14:45:53;;;;;;;2.13;1.23;;;19.00;52.80;;;;;;5041899;28;20465;-42